createdAt,value
2022-09-05T00:04:10.549Z,3.67
2022-09-05T00:09:53.148Z,4.57
2022-09-05T00:15:18.891Z,4.45
2022-09-05T00:24:33.058Z,4.22
2022-09-05T00:26:09.783Z,4.20
2022-09-05T00:31:53.729Z,4.00
2022-09-05T00:36:56.019Z,4.05
2022-09-05T00:42:05.370Z,3.55
2022-09-05T00:47:15.117Z,3.85
2022-09-05T00:52:26.137Z,3.67
2022-09-05T00:57:49.294Z,3.53
2022-09-05T01:03:09.820Z,3.42
2022-09-05T01:08:32.028Z,3.50
2022-09-05T01:13:46.887Z,3.40
2022-09-05T01:19:01.470Z,3.55
2022-09-05T01:24:30.613Z,3.40
2022-09-05T01:29:44.793Z,3.35
2022-09-05T01:35:01.654Z,3.38
2022-09-05T01:40:20.664Z,3.97
2022-09-05T01:45:37.581Z,3.28
2022-09-05T01:50:49.497Z,3.75
2022-09-05T01:56:24.041Z,3.23
2022-09-05T02:01:37.314Z,3.80
2022-09-05T02:06:47.696Z,3.42
2022-09-05T02:11:57.387Z,3.70
2022-09-05T02:17:44.790Z,3.13
2022-09-05T02:22:44.023Z,3.30
2022-09-05T02:28:03.918Z,3.22
2022-09-05T02:33:21.197Z,3.60
2022-09-05T02:45:03.414Z,3.47
2022-09-05T02:45:21.694Z,4.07
2022-09-05T02:51:47.410Z,4.35
2022-09-05T02:57:41.150Z,3.47
2022-09-05T03:00:56.115Z,3.85
2022-09-05T03:06:06.932Z,3.70
2022-09-05T03:11:50.296Z,3.35
2022-09-05T03:17:34.609Z,3.33
2022-09-05T03:23:08.628Z,3.55
2022-09-05T03:28:50.944Z,3.70
2022-09-05T03:34:39.846Z,3.55
2022-09-05T03:40:16.930Z,3.30
2022-09-05T03:45:36.981Z,3.58
2022-09-05T03:56:27.609Z,3.25
2022-09-05T03:57:15.450Z,3.25
2022-09-05T04:06:58.359Z,3.47
2022-09-05T04:08:23.961Z,3.60
2022-09-05T04:13:04.044Z,3.92
2022-09-05T04:18:25.765Z,3.97
2022-09-05T04:23:48.017Z,3.63
2022-09-05T04:29:02.726Z,3.75
2022-09-05T04:34:21.022Z,4.00
2022-09-05T04:39:28.604Z,4.32
2022-09-05T04:44:38.625Z,3.92
2022-09-05T04:49:44.443Z,3.85
2022-09-05T04:54:53.359Z,3.90
2022-09-05T05:04:23.749Z,3.97
2022-09-05T05:06:16.894Z,3.92
2022-09-05T05:17:54.982Z,4.18
2022-09-05T05:18:06.546Z,4.45
2022-09-05T05:22:08.143Z,3.05
2022-09-05T05:27:20.055Z,3.30
2022-09-05T05:32:45.003Z,3.60
2022-09-05T05:37:54.756Z,4.10
2022-09-05T05:43:16.030Z,3.67
2022-09-05T05:54:03.334Z,3.83
2022-09-05T06:06:14.977Z,4.15
2022-09-05T06:14:59.033Z,3.97
2022-09-05T06:18:01.899Z,3.65
2022-09-05T06:23:40.314Z,3.50
2022-09-05T06:28:57.375Z,3.78
2022-09-05T06:34:33.556Z,3.92
2022-09-05T06:40:01.251Z,3.78
2022-09-05T06:45:28.423Z,3.67
2022-09-05T06:51:09.065Z,3.97
2022-09-05T06:56:30.924Z,3.95
2022-09-05T07:01:59.822Z,3.72
2022-09-05T07:07:10.173Z,3.85
2022-09-05T07:12:18.551Z,3.78
2022-09-05T07:17:44.428Z,4.88
2022-09-05T07:23:38.304Z,3.42
2022-09-05T07:28:30.502Z,3.53
2022-09-05T07:33:39.667Z,3.85
2022-09-05T07:39:02.433Z,3.50
2022-09-05T07:44:22.203Z,3.70
2022-09-05T07:49:31.155Z,3.17
2022-09-05T07:57:01.327Z,3.40
2022-09-05T08:00:25.614Z,3.42
2022-09-05T08:05:40.308Z,3.30
2022-09-05T08:11:23.792Z,3.08
2022-09-05T08:16:16.860Z,3.00
2022-09-05T08:21:27.255Z,2.72
2022-09-05T08:26:38.739Z,3.17
2022-09-05T08:31:46.523Z,2.90
2022-09-05T08:36:52.998Z,2.90
2022-09-05T08:42:25.162Z,3.08
2022-09-05T08:47:45.589Z,2.85
2022-09-05T08:53:28.161Z,2.90
2022-09-05T08:59:27.531Z,2.40
2022-09-05T09:04:39.969Z,2.90
2022-09-05T09:09:59.458Z,2.53
2022-09-05T09:15:06.417Z,3.03
2022-09-05T09:20:22.599Z,2.72
2022-09-05T09:25:33.958Z,2.40
2022-09-05T09:30:41.448Z,2.25
2022-09-05T09:35:53.156Z,2.05
2022-09-05T09:41:23.327Z,2.10
2022-09-05T09:46:39.393Z,2.40
2022-09-05T09:51:55.335Z,2.70
2022-09-05T09:57:21.537Z,2.20
2022-09-05T10:06:00.311Z,2.15
2022-09-05T10:10:52.714Z,1.80
2022-09-05T10:14:50.046Z,2.28
2022-09-05T10:20:28.714Z,2.22
2022-09-05T10:26:01.558Z,2.20
2022-09-05T10:32:31.349Z,2.10
2022-09-05T10:36:41.499Z,2.03
2022-09-05T10:41:49.207Z,2.20
2022-09-05T10:47:04.725Z,2.00
2022-09-05T10:52:18.523Z,1.80
2022-09-05T10:57:34.997Z,1.60
2022-09-05T11:02:47.247Z,1.70
2022-09-05T11:08:01.800Z,1.77
2022-09-05T11:13:16.329Z,1.70
2022-09-05T11:18:55.129Z,1.73
2022-09-05T11:24:00.958Z,1.83
2022-09-05T11:29:08.924Z,1.80
2022-09-05T11:39:46.114Z,1.65
2022-09-05T11:40:41.911Z,1.90
2022-09-05T11:46:15.454Z,1.50
2022-09-05T11:51:58.905Z,1.65
2022-09-05T11:57:33.786Z,1.50
2022-09-05T12:02:55.573Z,1.67
2022-09-05T12:08:09.155Z,1.60
2022-09-05T12:13:33.735Z,1.40
2022-09-05T12:18:44.440Z,1.50
2022-09-05T12:24:58.891Z,1.10
2022-09-05T12:29:35.598Z,1.60
2022-09-05T12:36:03.745Z,1.45
2022-09-05T12:41:38.837Z,1.30
2022-09-05T12:45:47.749Z,1.45
2022-09-05T12:50:58.614Z,1.20
2022-09-05T12:57:29.171Z,1.45
2022-09-05T13:03:13.538Z,0.70
2022-09-05T13:07:01.048Z,1.10
2022-09-05T13:14:47.560Z,1.23
2022-09-05T13:17:44.328Z,1.23
2022-09-05T13:22:50.512Z,0.90
2022-09-05T13:27:59.264Z,1.00
2022-09-05T13:38:12.827Z,1.40
2022-09-05T13:38:49.467Z,1.35
2022-09-05T13:44:00.377Z,0.80
2022-09-05T13:49:26.652Z,0.80
2022-09-05T13:54:37.666Z,0.80
2022-09-05T13:59:44.661Z,0.80
2022-09-05T14:05:29.083Z,1.00
2022-09-05T14:11:07.909Z,1.30
2022-09-05T14:16:19.535Z,1.10
2022-09-05T14:21:24.995Z,1.13
2022-09-05T14:26:31.536Z,1.42
2022-09-05T14:37:35.955Z,1.15
2022-09-05T14:37:44.166Z,1.20
2022-09-05T14:43:17.447Z,1.02
2022-09-05T14:48:53.556Z,1.38
2022-09-05T14:54:01.424Z,1.20
2022-09-05T15:02:43.971Z,1.35
2022-09-05T15:04:46.884Z,1.30
2022-09-05T15:12:17.766Z,1.40
2022-09-05T15:15:35.915Z,1.20
2022-09-05T15:20:42.160Z,1.58
2022-09-05T15:25:48.144Z,1.25
2022-09-05T15:31:04.449Z,1.17
2022-09-05T15:36:13.395Z,1.20
2022-09-05T15:41:20.579Z,0.98
2022-09-05T15:46:29.572Z,1.17
2022-09-05T15:51:48.051Z,1.10
2022-09-05T15:56:54.276Z,1.80
2022-09-05T16:02:00.334Z,1.33
2022-09-05T16:10:36.335Z,1.27
2022-09-05T16:12:33.391Z,1.13
2022-09-05T16:23:15.774Z,1.20
2022-09-05T16:23:39.414Z,1.40
2022-09-05T16:28:39.165Z,1.30
2022-09-05T16:33:43.816Z,1.30
2022-09-05T16:38:52.809Z,1.25
2022-09-05T16:43:59.820Z,1.27
2022-09-05T16:49:12.082Z,1.90
2022-09-05T16:54:25.643Z,2.53
2022-09-05T16:59:31.311Z,2.65
2022-09-05T17:05:03.152Z,2.85
2022-09-05T17:10:12.076Z,2.53
2022-09-05T17:15:17.540Z,2.78
2022-09-05T17:20:23.640Z,2.90
2022-09-05T17:29:35.290Z,2.90
2022-09-05T17:36:41.385Z,3.05
2022-09-05T17:42:12.858Z,3.20
2022-09-05T17:47:35.354Z,3.22
2022-09-05T17:53:26.886Z,3.40
2022-09-05T17:58:49.613Z,3.33
2022-09-05T18:04:08.521Z,3.50
2022-09-05T18:10:12.611Z,3.22
2022-09-05T18:15:22.537Z,3.45
2022-09-05T18:20:33.527Z,3.97
2022-09-05T18:25:48.349Z,3.55
2022-09-05T18:30:52.832Z,3.45
2022-09-05T18:36:35.876Z,3.60
2022-09-05T18:41:41.801Z,3.60
2022-09-05T18:46:49.899Z,3.90
2022-09-05T18:52:00.932Z,3.50
2022-09-05T18:57:26.832Z,3.70
2022-09-05T19:02:50.031Z,3.72
2022-09-05T19:08:04.715Z,3.97
2022-09-05T19:13:15.569Z,3.78
2022-09-05T19:18:26.028Z,3.90
2022-09-05T19:23:33.786Z,3.35
2022-09-05T19:36:59.817Z,3.90
2022-09-05T19:37:12.706Z,3.85
2022-09-05T19:42:01.793Z,4.13
2022-09-05T19:47:38.168Z,4.00
2022-09-05T19:50:29.848Z,4.53
2022-09-05T19:55:37.390Z,4.22
2022-09-05T20:00:42.153Z,4.07
2022-09-05T20:05:51.606Z,4.80
2022-09-05T20:11:02.757Z,4.13
2022-09-05T20:16:05.916Z,4.05
2022-09-05T20:21:13.108Z,4.78
2022-09-05T20:26:19.217Z,4.50
2022-09-05T20:31:27.628Z,4.95
2022-09-05T20:43:10.766Z,5.07
2022-09-05T20:43:30.782Z,4.85
2022-09-05T20:48:43.535Z,5.07
2022-09-05T20:54:27.975Z,4.53
2022-09-05T20:58:31.257Z,4.20
2022-09-05T21:03:40.930Z,4.40
2022-09-05T21:08:50.942Z,4.72
2022-09-05T21:14:03.380Z,4.60
2022-09-05T21:29:32.253Z,4.90
2022-09-05T21:34:45.098Z,4.40
2022-09-05T21:39:59.793Z,5.20
2022-09-05T21:47:43.541Z,4.63
2022-09-05T21:50:31.385Z,4.35
2022-09-05T21:59:32.838Z,4.40
2022-09-05T22:00:59.494Z,5.10
2022-09-05T22:06:04.207Z,4.22
2022-09-05T22:11:14.445Z,5.00
2022-09-05T22:16:17.710Z,5.13
2022-09-05T22:21:32.818Z,4.63
2022-09-05T22:27:11.425Z,4.70
2022-09-05T22:32:08.789Z,4.90
2022-09-05T22:37:14.010Z,5.00
2022-09-05T22:42:18.334Z,5.05
2022-09-05T22:47:21.273Z,5.45
2022-09-05T22:52:24.211Z,4.95
2022-09-05T22:57:28.508Z,5.15
2022-09-05T23:02:31.421Z,5.22
2022-09-05T23:07:34.579Z,5.15
2022-09-05T23:12:38.960Z,5.30
2022-09-05T23:17:41.830Z,5.25
2022-09-05T23:22:44.693Z,5.47
2022-09-05T23:27:49.433Z,5.43
2022-09-05T23:32:53.137Z,5.57
2022-09-05T23:37:56.189Z,5.25
2022-09-05T23:43:01.148Z,5.72
2022-09-05T23:48:04.378Z,5.40
2022-09-05T23:53:07.230Z,5.75
2022-09-05T23:58:12.584Z,6.05
